sensor_id;sensor_type;location;lat;lon;timestamp;P1;durP1;ratioP1;P2;durP2;ratioP2
5452;SDS011;2749;53.576;9.822;2023-03-21T00:00:17;22.83;;;19.20;;
5452;SDS011;2749;53.576;9.822;2023-03-21T00:02:43;23.30;;;18.67;;
5452;SDS011;2749;53.576;9.822;2023-03-21T00:05:09;23.67;;;18.83;;
5452;SDS011;2749;53.576;9.822;2023-03-21T00:07:35;23.83;;;19.23;;
5452;SDS011;2749;53.576;9.822;2023-03-21T00:10:01;25.97;;;18.43;;
5452;SDS011;2749;53.576;9.822;2023-03-21T00:12:27;27.83;;;20.90;;
5452;SDS011;2749;53.576;9.822;2023-03-21T00:14:56;21.37;;;17.90;;
5452;SDS011;2749;53.576;9.822;2023-03-21T00:17:30;24.17;;;19.70;;
5452;SDS011;2749;53.576;9.822;2023-03-21T00:19:56;22.13;;;17.27;;
5452;SDS011;2749;53.576;9.822;2023-03-21T00:22:23;26.00;;;20.33;;
5452;SDS011;2749;53.576;9.822;2023-03-21T00:24:49;29.73;;;22.97;;
5452;SDS011;2749;53.576;9.822;2023-03-21T00:27:16;27.83;;;20.40;;
5452;SDS011;2749;53.576;9.822;2023-03-21T00:29:43;29.30;;;21.10;;
5452;SDS011;2749;53.576;9.822;2023-03-21T00:32:09;29.53;;;22.27;;
5452;SDS011;2749;53.576;9.822;2023-03-21T00:34:35;28.83;;;22.20;;
5452;SDS011;2749;53.576;9.822;2023-03-21T00:37:02;28.67;;;20.37;;
5452;SDS011;2749;53.576;9.822;2023-03-21T00:39:28;28.20;;;22.60;;
5452;SDS011;2749;53.576;9.822;2023-03-21T00:41:54;29.20;;;21.10;;
5452;SDS011;2749;53.576;9.822;2023-03-21T00:44:20;28.93;;;23.07;;
5452;SDS011;2749;53.576;9.822;2023-03-21T00:46:47;31.77;;;20.33;;
5452;SDS011;2749;53.576;9.822;2023-03-21T00:49:13;30.43;;;21.97;;
5452;SDS011;2749;53.576;9.822;2023-03-21T00:51:39;31.90;;;23.73;;
5452;SDS011;2749;53.576;9.822;2023-03-21T00:54:08;35.00;;;24.20;;
5452;SDS011;2749;53.576;9.822;2023-03-21T00:56:35;33.70;;;23.10;;
5452;SDS011;2749;53.576;9.822;2023-03-21T00:59:01;32.90;;;23.83;;
5452;SDS011;2749;53.576;9.822;2023-03-21T01:01:27;39.30;;;26.37;;
5452;SDS011;2749;53.576;9.822;2023-03-21T01:03:56;32.30;;;23.53;;
5452;SDS011;2749;53.576;9.822;2023-03-21T01:06:29;33.30;;;23.00;;
5452;SDS011;2749;53.576;9.822;2023-03-21T01:08:55;37.57;;;25.53;;
5452;SDS011;2749;53.576;9.822;2023-03-21T01:11:22;37.63;;;24.00;;
5452;SDS011;2749;53.576;9.822;2023-03-21T01:13:48;30.17;;;24.10;;
5452;SDS011;2749;53.576;9.822;2023-03-21T01:16:15;37.20;;;24.83;;
5452;SDS011;2749;53.576;9.822;2023-03-21T01:18:40;36.63;;;25.83;;
5452;SDS011;2749;53.576;9.822;2023-03-21T01:21:08;36.47;;;26.17;;
5452;SDS011;2749;53.576;9.822;2023-03-21T01:23:34;37.97;;;26.70;;
5452;SDS011;2749;53.576;9.822;2023-03-21T01:26:00;33.13;;;24.87;;
5452;SDS011;2749;53.576;9.822;2023-03-21T01:28:27;39.80;;;26.07;;
5452;SDS011;2749;53.576;9.822;2023-03-21T01:30:53;34.73;;;24.27;;
5452;SDS011;2749;53.576;9.822;2023-03-21T01:33:19;40.50;;;26.60;;
5452;SDS011;2749;53.576;9.822;2023-03-21T01:35:46;33.07;;;25.30;;
5452;SDS011;2749;53.576;9.822;2023-03-21T01:38:12;40.27;;;27.17;;
5452;SDS011;2749;53.576;9.822;2023-03-21T01:40:38;35.17;;;24.53;;
5452;SDS011;2749;53.576;9.822;2023-03-21T01:43:11;38.37;;;27.27;;
5452;SDS011;2749;53.576;9.822;2023-03-21T01:48:27;40.10;;;27.70;;
5452;SDS011;2749;53.576;9.822;2023-03-21T01:50:53;39.93;;;28.37;;
5452;SDS011;2749;53.576;9.822;2023-03-21T01:53:21;44.83;;;28.30;;
5452;SDS011;2749;53.576;9.822;2023-03-21T01:55:47;41.27;;;28.17;;
5452;SDS011;2749;53.576;9.822;2023-03-21T01:58:14;38.13;;;26.67;;
5452;SDS011;2749;53.576;9.822;2023-03-21T02:00:42;43.20;;;29.23;;
5452;SDS011;2749;53.576;9.822;2023-03-21T02:03:08;43.00;;;28.60;;
5452;SDS011;2749;53.576;9.822;2023-03-21T02:08:03;43.67;;;27.10;;
5452;SDS011;2749;53.576;9.822;2023-03-21T02:10:30;42.23;;;29.50;;
5452;SDS011;2749;53.576;9.822;2023-03-21T02:12:57;42.30;;;29.10;;
5452;SDS011;2749;53.576;9.822;2023-03-21T02:15:32;40.93;;;26.40;;
5452;SDS011;2749;53.576;9.822;2023-03-21T02:18:00;39.87;;;27.17;;
5452;SDS011;2749;53.576;9.822;2023-03-21T02:33:24;45.57;;;29.13;;
5452;SDS011;2749;53.576;9.822;2023-03-21T02:38:40;40.20;;;27.20;;
5452;SDS011;2749;53.576;9.822;2023-03-21T02:41:13;44.37;;;31.90;;
5452;SDS011;2749;53.576;9.822;2023-03-21T02:46:17;46.27;;;31.47;;
5452;SDS011;2749;53.576;9.822;2023-03-21T02:48:51;43.27;;;31.30;;
5452;SDS011;2749;53.576;9.822;2023-03-21T02:51:20;44.10;;;30.00;;
5452;SDS011;2749;53.576;9.822;2023-03-21T02:53:52;46.60;;;31.20;;
5452;SDS011;2749;53.576;9.822;2023-03-21T02:56:19;43.43;;;29.90;;
5452;SDS011;2749;53.576;9.822;2023-03-21T02:58:46;44.50;;;29.50;;
5452;SDS011;2749;53.576;9.822;2023-03-21T03:01:13;43.50;;;29.97;;
5452;SDS011;2749;53.576;9.822;2023-03-21T03:03:39;47.10;;;30.93;;
5452;SDS011;2749;53.576;9.822;2023-03-21T03:06:08;46.87;;;31.30;;
5452;SDS011;2749;53.576;9.822;2023-03-21T03:19:04;49.60;;;32.00;;
5452;SDS011;2749;53.576;9.822;2023-03-21T03:24:06;44.90;;;31.80;;
5452;SDS011;2749;53.576;9.822;2023-03-21T03:26:34;48.13;;;32.07;;
5452;SDS011;2749;53.576;9.822;2023-03-21T03:29:07;40.80;;;28.93;;
5452;SDS011;2749;53.576;9.822;2023-03-21T03:31:35;43.00;;;30.87;;
5452;SDS011;2749;53.576;9.822;2023-03-21T03:34:08;41.57;;;29.20;;
5452;SDS011;2749;53.576;9.822;2023-03-21T03:36:36;44.40;;;32.70;;
5452;SDS011;2749;53.576;9.822;2023-03-21T03:39:05;47.33;;;31.87;;
5452;SDS011;2749;53.576;9.822;2023-03-21T03:41:32;44.33;;;32.57;;
5452;SDS011;2749;53.576;9.822;2023-03-21T03:44:00;43.03;;;30.67;;
5452;SDS011;2749;53.576;9.822;2023-03-21T03:48:54;44.37;;;30.10;;
5452;SDS011;2749;53.576;9.822;2023-03-21T03:51:25;50.90;;;33.03;;
5452;SDS011;2749;53.576;9.822;2023-03-21T03:53:54;48.17;;;31.60;;
5452;SDS011;2749;53.576;9.822;2023-03-21T03:56:21;50.40;;;33.27;;
5452;SDS011;2749;53.576;9.822;2023-03-21T03:58:49;48.40;;;30.10;;
5452;SDS011;2749;53.576;9.822;2023-03-21T04:01:15;42.20;;;30.80;;
5452;SDS011;2749;53.576;9.822;2023-03-21T04:03:42;43.07;;;31.90;;
5452;SDS011;2749;53.576;9.822;2023-03-21T04:06:09;49.43;;;32.90;;
5452;SDS011;2749;53.576;9.822;2023-03-21T04:08:35;52.07;;;31.70;;
5452;SDS011;2749;53.576;9.822;2023-03-21T04:11:01;51.83;;;33.10;;
5452;SDS011;2749;53.576;9.822;2023-03-21T04:13:27;49.70;;;34.23;;
5452;SDS011;2749;53.576;9.822;2023-03-21T04:15:53;49.07;;;33.43;;
5452;SDS011;2749;53.576;9.822;2023-03-21T04:18:19;55.27;;;36.23;;
5452;SDS011;2749;53.576;9.822;2023-03-21T04:20:47;51.63;;;33.40;;
5452;SDS011;2749;53.576;9.822;2023-03-21T04:23:13;47.97;;;34.17;;
5452;SDS011;2749;53.576;9.822;2023-03-21T04:25:40;52.10;;;34.00;;
5452;SDS011;2749;53.576;9.822;2023-03-21T04:28:06;50.27;;;32.90;;
5452;SDS011;2749;53.576;9.822;2023-03-21T04:30:32;45.20;;;30.27;;
5452;SDS011;2749;53.576;9.822;2023-03-21T04:32:58;56.03;;;35.47;;
5452;SDS011;2749;53.576;9.822;2023-03-21T04:35:25;53.03;;;32.80;;
5452;SDS011;2749;53.576;9.822;2023-03-21T04:37:51;50.67;;;34.17;;
5452;SDS011;2749;53.576;9.822;2023-03-21T04:40:17;50.30;;;34.17;;
5452;SDS011;2749;53.576;9.822;2023-03-21T04:42:43;50.60;;;32.90;;
5452;SDS011;2749;53.576;9.822;2023-03-21T04:45:09;55.17;;;34.30;;
5452;SDS011;2749;53.576;9.822;2023-03-21T04:47:35;45.30;;;32.47;;
5452;SDS011;2749;53.576;9.822;2023-03-21T04:50:01;41.40;;;30.60;;
5452;SDS011;2749;53.576;9.822;2023-03-21T04:52:27;49.00;;;34.00;;
5452;SDS011;2749;53.576;9.822;2023-03-21T04:54:53;55.87;;;34.50;;
5452;SDS011;2749;53.576;9.822;2023-03-21T04:57:19;47.17;;;33.00;;
5452;SDS011;2749;53.576;9.822;2023-03-21T04:59:45;52.03;;;37.13;;
5452;SDS011;2749;53.576;9.822;2023-03-21T05:02:11;55.23;;;34.30;;
5452;SDS011;2749;53.576;9.822;2023-03-21T05:04:37;53.73;;;34.60;;
5452;SDS011;2749;53.576;9.822;2023-03-21T05:07:03;58.70;;;37.20;;
5452;SDS011;2749;53.576;9.822;2023-03-21T05:09:30;58.57;;;37.33;;
5452;SDS011;2749;53.576;9.822;2023-03-21T05:11:56;51.67;;;34.27;;
5452;SDS011;2749;53.576;9.822;2023-03-21T05:14:23;47.60;;;33.63;;
5452;SDS011;2749;53.576;9.822;2023-03-21T05:16:49;51.60;;;34.07;;
5452;SDS011;2749;53.576;9.822;2023-03-21T05:19:24;48.47;;;34.60;;
5452;SDS011;2749;53.576;9.822;2023-03-21T05:21:58;45.57;;;32.17;;
5452;SDS011;2749;53.576;9.822;2023-03-21T05:24:28;48.87;;;33.70;;
5452;SDS011;2749;53.576;9.822;2023-03-21T05:26:54;44.80;;;32.97;;
5452;SDS011;2749;53.576;9.822;2023-03-21T05:29:25;45.17;;;32.40;;
5452;SDS011;2749;53.576;9.822;2023-03-21T05:31:51;45.40;;;31.83;;
5452;SDS011;2749;53.576;9.822;2023-03-21T05:34:17;42.10;;;30.40;;
5452;SDS011;2749;53.576;9.822;2023-03-21T05:36:43;46.43;;;33.20;;
5452;SDS011;2749;53.576;9.822;2023-03-21T05:39:09;45.47;;;30.40;;
5452;SDS011;2749;53.576;9.822;2023-03-21T05:41:35;44.97;;;31.60;;
5452;SDS011;2749;53.576;9.822;2023-03-21T05:44:01;47.17;;;32.63;;
5452;SDS011;2749;53.576;9.822;2023-03-21T05:46:27;42.03;;;30.70;;
5452;SDS011;2749;53.576;9.822;2023-03-21T05:48:53;43.53;;;32.33;;
5452;SDS011;2749;53.576;9.822;2023-03-21T05:51:19;41.80;;;31.47;;
5452;SDS011;2749;53.576;9.822;2023-03-21T05:53:45;43.47;;;29.37;;
5452;SDS011;2749;53.576;9.822;2023-03-21T05:56:11;41.10;;;32.40;;
5452;SDS011;2749;53.576;9.822;2023-03-21T05:58:37;42.83;;;30.37;;
5452;SDS011;2749;53.576;9.822;2023-03-21T06:01:03;39.77;;;29.00;;
5452;SDS011;2749;53.576;9.822;2023-03-21T06:03:29;39.60;;;28.40;;
5452;SDS011;2749;53.576;9.822;2023-03-21T06:05:55;45.40;;;33.57;;
5452;SDS011;2749;53.576;9.822;2023-03-21T06:08:21;44.00;;;31.37;;
5452;SDS011;2749;53.576;9.822;2023-03-21T06:10:47;44.80;;;30.83;;
5452;SDS011;2749;53.576;9.822;2023-03-21T06:13:13;42.80;;;30.13;;
5452;SDS011;2749;53.576;9.822;2023-03-21T06:15:39;44.17;;;32.67;;
5452;SDS011;2749;53.576;9.822;2023-03-21T06:18:05;41.20;;;30.33;;
5452;SDS011;2749;53.576;9.822;2023-03-21T06:20:31;43.13;;;32.10;;
5452;SDS011;2749;53.576;9.822;2023-03-21T06:22:57;44.90;;;30.80;;
5452;SDS011;2749;53.576;9.822;2023-03-21T06:25:23;44.13;;;31.93;;
5452;SDS011;2749;53.576;9.822;2023-03-21T06:27:49;46.00;;;31.00;;
5452;SDS011;2749;53.576;9.822;2023-03-21T06:30:16;45.97;;;32.80;;
5452;SDS011;2749;53.576;9.822;2023-03-21T06:32:42;46.30;;;32.70;;
5452;SDS011;2749;53.576;9.822;2023-03-21T06:35:08;44.10;;;30.23;;
5452;SDS011;2749;53.576;9.822;2023-03-21T06:37:34;43.20;;;32.50;;
5452;SDS011;2749;53.576;9.822;2023-03-21T06:40:00;41.20;;;31.50;;
5452;SDS011;2749;53.576;9.822;2023-03-21T06:42:27;42.03;;;32.00;;
5452;SDS011;2749;53.576;9.822;2023-03-21T06:44:54;45.07;;;32.40;;
5452;SDS011;2749;53.576;9.822;2023-03-21T06:47:19;41.47;;;29.13;;
5452;SDS011;2749;53.576;9.822;2023-03-21T06:49:45;42.00;;;30.77;;
5452;SDS011;2749;53.576;9.822;2023-03-21T06:52:11;44.20;;;30.90;;
5452;SDS011;2749;53.576;9.822;2023-03-21T06:54:37;52.03;;;33.87;;
5452;SDS011;2749;53.576;9.822;2023-03-21T06:57:03;49.77;;;34.80;;
5452;SDS011;2749;53.576;9.822;2023-03-21T06:59:29;49.67;;;34.83;;
5452;SDS011;2749;53.576;9.822;2023-03-21T07:01:55;52.87;;;35.17;;
5452;SDS011;2749;53.576;9.822;2023-03-21T07:04:21;45.20;;;31.90;;
5452;SDS011;2749;53.576;9.822;2023-03-21T07:06:47;53.07;;;34.57;;
5452;SDS011;2749;53.576;9.822;2023-03-21T07:09:13;48.47;;;33.70;;
5452;SDS011;2749;53.576;9.822;2023-03-21T07:11:41;46.80;;;34.13;;
5452;SDS011;2749;53.576;9.822;2023-03-21T07:14:07;48.30;;;34.70;;
5452;SDS011;2749;53.576;9.822;2023-03-21T07:16:34;43.47;;;32.37;;
5452;SDS011;2749;53.576;9.822;2023-03-21T07:19:00;51.97;;;37.60;;
5452;SDS011;2749;53.576;9.822;2023-03-21T07:21:25;50.83;;;37.17;;
5452;SDS011;2749;53.576;9.822;2023-03-21T07:23:51;50.30;;;33.67;;
5452;SDS011;2749;53.576;9.822;2023-03-21T07:26:17;54.70;;;35.20;;
5452;SDS011;2749;53.576;9.822;2023-03-21T07:28:44;49.73;;;36.50;;
5452;SDS011;2749;53.576;9.822;2023-03-21T07:31:14;59.40;;;37.60;;
5452;SDS011;2749;53.576;9.822;2023-03-21T07:33:40;50.67;;;36.40;;
5452;SDS011;2749;53.576;9.822;2023-03-21T07:36:08;56.17;;;40.33;;
5452;SDS011;2749;53.576;9.822;2023-03-21T07:38:35;66.80;;;38.73;;
5452;SDS011;2749;53.576;9.822;2023-03-21T07:41:01;57.53;;;36.67;;
5452;SDS011;2749;53.576;9.822;2023-03-21T07:43:27;75.50;;;41.67;;
5452;SDS011;2749;53.576;9.822;2023-03-21T07:45:56;53.50;;;35.30;;
5452;SDS011;2749;53.576;9.822;2023-03-21T07:48:22;58.53;;;37.97;;
5452;SDS011;2749;53.576;9.822;2023-03-21T07:50:48;65.13;;;37.50;;
5452;SDS011;2749;53.576;9.822;2023-03-21T07:53:15;67.60;;;40.23;;
5452;SDS011;2749;53.576;9.822;2023-03-21T07:55:40;56.37;;;38.40;;
5452;SDS011;2749;53.576;9.822;2023-03-21T07:58:06;62.20;;;38.47;;
5452;SDS011;2749;53.576;9.822;2023-03-21T08:00:32;66.80;;;38.40;;
5452;SDS011;2749;53.576;9.822;2023-03-21T08:02:58;61.70;;;42.07;;
5452;SDS011;2749;53.576;9.822;2023-03-21T08:05:29;58.90;;;37.60;;
5452;SDS011;2749;53.576;9.822;2023-03-21T08:07:55;59.47;;;37.43;;
5452;SDS011;2749;53.576;9.822;2023-03-21T08:10:21;66.80;;;41.47;;
5452;SDS011;2749;53.576;9.822;2023-03-21T08:12:47;70.00;;;39.43;;
5452;SDS011;2749;53.576;9.822;2023-03-21T08:15:14;67.23;;;37.80;;
5452;SDS011;2749;53.576;9.822;2023-03-21T08:17:40;62.87;;;37.20;;
5452;SDS011;2749;53.576;9.822;2023-03-21T08:20:09;85.40;;;40.03;;
5452;SDS011;2749;53.576;9.822;2023-03-21T08:22:36;60.87;;;38.57;;
5452;SDS011;2749;53.576;9.822;2023-03-21T08:25:03;61.53;;;36.83;;
5452;SDS011;2749;53.576;9.822;2023-03-21T08:27:30;62.77;;;38.60;;
5452;SDS011;2749;53.576;9.822;2023-03-21T08:29:56;65.33;;;38.73;;
5452;SDS011;2749;53.576;9.822;2023-03-21T08:32:22;64.20;;;38.10;;
5452;SDS011;2749;53.576;9.822;2023-03-21T08:34:53;52.77;;;35.93;;
5452;SDS011;2749;53.576;9.822;2023-03-21T08:37:19;50.27;;;36.83;;
5452;SDS011;2749;53.576;9.822;2023-03-21T08:39:45;56.60;;;35.60;;
5452;SDS011;2749;53.576;9.822;2023-03-21T08:42:11;47.90;;;34.57;;
5452;SDS011;2749;53.576;9.822;2023-03-21T08:44:37;57.13;;;36.90;;
5452;SDS011;2749;53.576;9.822;2023-03-21T08:47:05;55.00;;;34.90;;
5452;SDS011;2749;53.576;9.822;2023-03-21T08:49:36;49.03;;;34.53;;
5452;SDS011;2749;53.576;9.822;2023-03-21T08:52:02;55.83;;;35.67;;
5452;SDS011;2749;53.576;9.822;2023-03-21T08:54:28;63.83;;;36.87;;
5452;SDS011;2749;53.576;9.822;2023-03-21T08:56:54;56.60;;;37.03;;
5452;SDS011;2749;53.576;9.822;2023-03-21T08:59:20;51.47;;;34.67;;
5452;SDS011;2749;53.576;9.822;2023-03-21T09:01:46;51.40;;;36.07;;
5452;SDS011;2749;53.576;9.822;2023-03-21T09:04:12;55.67;;;34.50;;
5452;SDS011;2749;53.576;9.822;2023-03-21T09:06:39;64.83;;;35.13;;
5452;SDS011;2749;53.576;9.822;2023-03-21T09:09:09;55.03;;;33.57;;
5452;SDS011;2749;53.576;9.822;2023-03-21T09:11:35;51.43;;;34.33;;
5452;SDS011;2749;53.576;9.822;2023-03-21T09:14:01;50.43;;;31.83;;
5452;SDS011;2749;53.576;9.822;2023-03-21T09:16:27;62.03;;;34.73;;
5452;SDS011;2749;53.576;9.822;2023-03-21T09:18:53;49.83;;;30.43;;
5452;SDS011;2749;53.576;9.822;2023-03-21T09:21:21;47.40;;;32.10;;
5452;SDS011;2749;53.576;9.822;2023-03-21T09:23:48;56.80;;;33.83;;
5452;SDS011;2749;53.576;9.822;2023-03-21T09:26:16;48.43;;;31.60;;
5452;SDS011;2749;53.576;9.822;2023-03-21T09:28:43;46.43;;;32.43;;
5452;SDS011;2749;53.576;9.822;2023-03-21T09:31:10;47.00;;;31.80;;
5452;SDS011;2749;53.576;9.822;2023-03-21T09:33:40;51.57;;;34.00;;
5452;SDS011;2749;53.576;9.822;2023-03-21T09:36:07;43.00;;;32.10;;
5452;SDS011;2749;53.576;9.822;2023-03-21T09:38:41;41.53;;;31.67;;
5452;SDS011;2749;53.576;9.822;2023-03-21T09:41:18;47.20;;;30.57;;
5452;SDS011;2749;53.576;9.822;2023-03-21T09:46:23;47.83;;;30.93;;
5452;SDS011;2749;53.576;9.822;2023-03-21T09:49:02;52.10;;;29.47;;
5452;SDS011;2749;53.576;9.822;2023-03-21T09:51:34;49.67;;;32.33;;
5452;SDS011;2749;53.576;9.822;2023-03-21T09:54:04;42.70;;;30.30;;
5452;SDS011;2749;53.576;9.822;2023-03-21T09:56:33;45.87;;;31.27;;
5452;SDS011;2749;53.576;9.822;2023-03-21T09:59:00;46.50;;;32.07;;
5452;SDS011;2749;53.576;9.822;2023-03-21T10:01:28;47.30;;;31.83;;
5452;SDS011;2749;53.576;9.822;2023-03-21T10:03:59;42.77;;;30.13;;
5452;SDS011;2749;53.576;9.822;2023-03-21T10:06:25;46.83;;;31.60;;
5452;SDS011;2749;53.576;9.822;2023-03-21T10:08:57;44.63;;;30.13;;
5452;SDS011;2749;53.576;9.822;2023-03-21T10:11:25;60.80;;;29.77;;
5452;SDS011;2749;53.576;9.822;2023-03-21T10:13:56;40.87;;;28.77;;
5452;SDS011;2749;53.576;9.822;2023-03-21T10:16:36;38.37;;;26.87;;
5452;SDS011;2749;53.576;9.822;2023-03-21T10:19:16;38.73;;;29.03;;
5452;SDS011;2749;53.576;9.822;2023-03-21T10:21:44;44.07;;;27.03;;
5452;SDS011;2749;53.576;9.822;2023-03-21T10:24:12;37.63;;;27.40;;
5452;SDS011;2749;53.576;9.822;2023-03-21T10:26:38;43.43;;;27.77;;
5452;SDS011;2749;53.576;9.822;2023-03-21T10:29:04;38.20;;;28.33;;
5452;SDS011;2749;53.576;9.822;2023-03-21T10:31:30;40.73;;;25.33;;
5452;SDS011;2749;53.576;9.822;2023-03-21T10:33:58;38.77;;;27.70;;
5452;SDS011;2749;53.576;9.822;2023-03-21T10:36:26;40.90;;;25.97;;
5452;SDS011;2749;53.576;9.822;2023-03-21T10:39:05;42.30;;;26.80;;
5452;SDS011;2749;53.576;9.822;2023-03-21T10:41:32;39.03;;;27.67;;
5452;SDS011;2749;53.576;9.822;2023-03-21T10:44:03;42.00;;;27.70;;
5452;SDS011;2749;53.576;9.822;2023-03-21T10:46:30;32.50;;;24.80;;
5452;SDS011;2749;53.576;9.822;2023-03-21T10:48:57;41.10;;;26.40;;
5452;SDS011;2749;53.576;9.822;2023-03-21T10:51:27;40.57;;;25.77;;
5452;SDS011;2749;53.576;9.822;2023-03-21T10:53:57;38.97;;;26.30;;
5452;SDS011;2749;53.576;9.822;2023-03-21T10:56:27;48.40;;;27.40;;
5452;SDS011;2749;53.576;9.822;2023-03-21T10:58:54;41.60;;;26.20;;
5452;SDS011;2749;53.576;9.822;2023-03-21T11:01:26;41.60;;;27.67;;
5452;SDS011;2749;53.576;9.822;2023-03-21T11:03:55;43.83;;;27.17;;
5452;SDS011;2749;53.576;9.822;2023-03-21T11:06:25;43.40;;;27.13;;
5452;SDS011;2749;53.576;9.822;2023-03-21T11:09:42;48.37;;;28.27;;
5452;SDS011;2749;53.576;9.822;2023-03-21T11:11:48;41.60;;;28.23;;
5452;SDS011;2749;53.576;9.822;2023-03-21T11:14:25;39.30;;;27.50;;
5452;SDS011;2749;53.576;9.822;2023-03-21T11:16:51;49.20;;;29.50;;
5452;SDS011;2749;53.576;9.822;2023-03-21T11:19:18;48.40;;;28.90;;
5452;SDS011;2749;53.576;9.822;2023-03-21T11:21:45;43.63;;;25.60;;
5452;SDS011;2749;53.576;9.822;2023-03-21T11:24:20;44.07;;;29.07;;
5452;SDS011;2749;53.576;9.822;2023-03-21T11:26:47;39.23;;;25.70;;
5452;SDS011;2749;53.576;9.822;2023-03-21T11:29:34;33.63;;;24.77;;
5452;SDS011;2749;53.576;9.822;2023-03-21T11:32:07;44.97;;;25.30;;
5452;SDS011;2749;53.576;9.822;2023-03-21T11:34:46;34.87;;;23.83;;
5452;SDS011;2749;53.576;9.822;2023-03-21T11:37:17;35.13;;;23.00;;
5452;SDS011;2749;53.576;9.822;2023-03-21T11:39:44;36.53;;;24.97;;
5452;SDS011;2749;53.576;9.822;2023-03-21T11:42:26;40.37;;;26.63;;
5452;SDS011;2749;53.576;9.822;2023-03-21T11:44:56;35.63;;;23.87;;
5452;SDS011;2749;53.576;9.822;2023-03-21T11:47:24;32.47;;;23.40;;
5452;SDS011;2749;53.576;9.822;2023-03-21T11:49:50;36.90;;;26.17;;
5452;SDS011;2749;53.576;9.822;2023-03-21T11:52:50;34.97;;;26.20;;
5452;SDS011;2749;53.576;9.822;2023-03-21T11:57:43;37.37;;;24.67;;
5452;SDS011;2749;53.576;9.822;2023-03-21T12:05:18;37.87;;;24.90;;
5452;SDS011;2749;53.576;9.822;2023-03-21T12:08:08;30.50;;;23.33;;
5452;SDS011;2749;53.576;9.822;2023-03-21T12:10:51;33.80;;;21.67;;
5452;SDS011;2749;53.576;9.822;2023-03-21T12:13:24;28.03;;;21.13;;
5452;SDS011;2749;53.576;9.822;2023-03-21T12:15:56;29.60;;;17.27;;
5452;SDS011;2749;53.576;9.822;2023-03-21T12:18:33;26.90;;;18.70;;
5452;SDS011;2749;53.576;9.822;2023-03-21T12:21:05;29.70;;;21.60;;
5452;SDS011;2749;53.576;9.822;2023-03-21T12:23:46;28.40;;;20.97;;
5452;SDS011;2749;53.576;9.822;2023-03-21T12:26:22;24.30;;;19.07;;
5452;SDS011;2749;53.576;9.822;2023-03-21T12:28:58;23.83;;;18.70;;
5452;SDS011;2749;53.576;9.822;2023-03-21T12:31:31;25.20;;;18.70;;
5452;SDS011;2749;53.576;9.822;2023-03-21T12:36:37;21.77;;;17.10;;
5452;SDS011;2749;53.576;9.822;2023-03-21T12:44:11;20.63;;;16.60;;
5452;SDS011;2749;53.576;9.822;2023-03-21T12:46:39;23.50;;;17.00;;
5452;SDS011;2749;53.576;9.822;2023-03-21T12:49:14;19.97;;;16.17;;
5452;SDS011;2749;53.576;9.822;2023-03-21T12:51:43;26.00;;;18.03;;
5452;SDS011;2749;53.576;9.822;2023-03-21T12:54:22;23.13;;;16.73;;
5452;SDS011;2749;53.576;9.822;2023-03-21T12:56:54;24.27;;;18.20;;
5452;SDS011;2749;53.576;9.822;2023-03-21T12:59:22;21.27;;;16.57;;
5452;SDS011;2749;53.576;9.822;2023-03-21T13:01:52;19.30;;;15.80;;
5452;SDS011;2749;53.576;9.822;2023-03-21T13:04:30;19.83;;;16.07;;
5452;SDS011;2749;53.576;9.822;2023-03-21T13:06:59;18.33;;;16.40;;
5452;SDS011;2749;53.576;9.822;2023-03-21T13:09:30;24.20;;;16.33;;
5452;SDS011;2749;53.576;9.822;2023-03-21T13:11:58;22.03;;;17.00;;
5452;SDS011;2749;53.576;9.822;2023-03-21T13:14:31;22.17;;;17.43;;
5452;SDS011;2749;53.576;9.822;2023-03-21T13:17:03;18.63;;;15.93;;
5452;SDS011;2749;53.576;9.822;2023-03-21T13:24:36;20.33;;;15.50;;
5452;SDS011;2749;53.576;9.822;2023-03-21T13:27:46;17.50;;;15.67;;
5452;SDS011;2749;53.576;9.822;2023-03-21T13:29:53;21.80;;;16.93;;
5452;SDS011;2749;53.576;9.822;2023-03-21T13:35:00;26.80;;;17.03;;
5452;SDS011;2749;53.576;9.822;2023-03-21T13:37:30;21.10;;;17.30;;
5452;SDS011;2749;53.576;9.822;2023-03-21T13:40:00;18.43;;;15.10;;
5452;SDS011;2749;53.576;9.822;2023-03-21T13:42:32;19.90;;;14.50;;
5452;SDS011;2749;53.576;9.822;2023-03-21T13:44:59;18.53;;;15.60;;
5452;SDS011;2749;53.576;9.822;2023-03-21T13:47:40;18.07;;;14.37;;
5452;SDS011;2749;53.576;9.822;2023-03-21T13:53:27;16.33;;;13.50;;
5452;SDS011;2749;53.576;9.822;2023-03-21T13:55:35;16.53;;;14.70;;
5452;SDS011;2749;53.576;9.822;2023-03-21T14:00:59;18.33;;;14.07;;
5452;SDS011;2749;53.576;9.822;2023-03-21T14:03:29;20.00;;;14.83;;
5452;SDS011;2749;53.576;9.822;2023-03-21T14:05:58;17.50;;;13.70;;
5452;SDS011;2749;53.576;9.822;2023-03-21T14:08:24;18.70;;;14.23;;
5452;SDS011;2749;53.576;9.822;2023-03-21T14:10:55;19.77;;;14.27;;
5452;SDS011;2749;53.576;9.822;2023-03-21T14:13:23;17.43;;;15.10;;
5452;SDS011;2749;53.576;9.822;2023-03-21T14:15:54;22.67;;;16.03;;
5452;SDS011;2749;53.576;9.822;2023-03-21T14:18:26;23.67;;;15.50;;
5452;SDS011;2749;53.576;9.822;2023-03-21T14:20:53;22.77;;;16.00;;
5452;SDS011;2749;53.576;9.822;2023-03-21T14:23:19;15.90;;;14.07;;
5452;SDS011;2749;53.576;9.822;2023-03-21T14:25:46;19.00;;;15.77;;
5452;SDS011;2749;53.576;9.822;2023-03-21T14:28:13;18.20;;;15.20;;
5452;SDS011;2749;53.576;9.822;2023-03-21T14:30:40;17.33;;;15.43;;
5452;SDS011;2749;53.576;9.822;2023-03-21T14:33:12;17.20;;;14.10;;
5452;SDS011;2749;53.576;9.822;2023-03-21T14:35:40;15.90;;;14.20;;
5452;SDS011;2749;53.576;9.822;2023-03-21T14:38:06;21.00;;;16.77;;
5452;SDS011;2749;53.576;9.822;2023-03-21T14:40:33;19.13;;;15.00;;
5452;SDS011;2749;53.576;9.822;2023-03-21T14:43:03;19.87;;;15.60;;
5452;SDS011;2749;53.576;9.822;2023-03-21T14:45:30;20.33;;;17.23;;
5452;SDS011;2749;53.576;9.822;2023-03-21T14:47:56;21.40;;;14.80;;
5452;SDS011;2749;53.576;9.822;2023-03-21T14:50:23;17.90;;;16.00;;
5452;SDS011;2749;53.576;9.822;2023-03-21T14:52:52;19.63;;;15.13;;
5452;SDS011;2749;53.576;9.822;2023-03-21T14:55:18;18.23;;;16.03;;
5452;SDS011;2749;53.576;9.822;2023-03-21T14:57:44;18.93;;;16.63;;
5452;SDS011;2749;53.576;9.822;2023-03-21T15:00:13;19.87;;;17.73;;
5452;SDS011;2749;53.576;9.822;2023-03-21T15:02:42;20.33;;;17.73;;
5452;SDS011;2749;53.576;9.822;2023-03-21T15:05:14;25.13;;;16.90;;
5452;SDS011;2749;53.576;9.822;2023-03-21T15:07:42;21.90;;;17.53;;
5452;SDS011;2749;53.576;9.822;2023-03-21T15:10:14;20.03;;;15.20;;
5452;SDS011;2749;53.576;9.822;2023-03-21T15:12:51;19.50;;;15.90;;
5452;SDS011;2749;53.576;9.822;2023-03-21T15:15:18;17.50;;;15.40;;
5452;SDS011;2749;53.576;9.822;2023-03-21T15:17:44;22.17;;;15.93;;
5452;SDS011;2749;53.576;9.822;2023-03-21T15:20:16;16.60;;;14.87;;
5452;SDS011;2749;53.576;9.822;2023-03-21T15:22:47;16.57;;;14.30;;
5452;SDS011;2749;53.576;9.822;2023-03-21T15:25:16;15.60;;;13.73;;
5452;SDS011;2749;53.576;9.822;2023-03-21T15:27:43;17.40;;;14.60;;
5452;SDS011;2749;53.576;9.822;2023-03-21T15:30:19;17.40;;;13.30;;
5452;SDS011;2749;53.576;9.822;2023-03-21T15:32:45;15.87;;;13.57;;
5452;SDS011;2749;53.576;9.822;2023-03-21T15:35:16;16.87;;;13.27;;
5452;SDS011;2749;53.576;9.822;2023-03-21T15:37:50;13.17;;;11.77;;
5452;SDS011;2749;53.576;9.822;2023-03-21T15:40:18;18.40;;;13.50;;
5452;SDS011;2749;53.576;9.822;2023-03-21T15:42:44;16.37;;;13.17;;
5452;SDS011;2749;53.576;9.822;2023-03-21T15:45:23;15.67;;;12.63;;
5452;SDS011;2749;53.576;9.822;2023-03-21T15:47:51;14.07;;;11.97;;
5452;SDS011;2749;53.576;9.822;2023-03-21T15:50:24;13.93;;;12.43;;
5452;SDS011;2749;53.576;9.822;2023-03-21T15:52:54;13.70;;;12.30;;
5452;SDS011;2749;53.576;9.822;2023-03-21T15:55:22;15.43;;;12.13;;
5452;SDS011;2749;53.576;9.822;2023-03-21T15:57:58;15.63;;;12.83;;
5452;SDS011;2749;53.576;9.822;2023-03-21T16:00:41;15.00;;;12.33;;
5452;SDS011;2749;53.576;9.822;2023-03-21T16:03:19;15.77;;;12.27;;
5452;SDS011;2749;53.576;9.822;2023-03-21T16:06:02;15.70;;;12.60;;